Dubuque, IA (52001)

3:36 PM CST on February 24, 2017 (GMT -0600)
City Hall Annex | | Change Station
Active Advisory: Winter Weather Advisory

Elev 640 ft 42.51 °N, 90.67 °W | Updated 6 minutes ago

Overcast
Overcast
30.8 °F
Feels Like 24 °F
N
7.0
Wind Variable Wind from NE
Gusts 7.0 mph

Today
High -- | Low -- °F
--% Chance of Precip.
Yesterday
High -- | Low -- °F
Precip. -- in
Pressure 29.57 in
Visibility 4.0 miles
Clouds Mostly Cloudy 700 ft
Overcast 2000 ft
Windchill 24 °F
Dew Point 29 °F
Humidity 92%
Rainfall 0.20 in
Snow Depth Not available.
6:45 AM 5:46 PM
Waning Crescent, 3% visible
SPECI KDBQ 242102Z 01011KT 4SM BR BKN007 OVC020 M01/M02 A2957 RMK AO2 T10111017
Pressure 29.57 in
Visibility 4.0 miles
Clouds Mostly Cloudy 700 ft
Overcast 2000 ft
Windchill 24 °F
Dew Point 29 °F
Humidity 92%
Rainfall 0.20 in
Snow Depth Not available.
6:45 AM 5:46 PM
Waning Crescent, 3% visible
SPECI KDBQ 242102Z 01011KT 4SM BR BKN007 OVC020 M01/M02 A2957 RMK AO2 T10111017

Get Your Daily Forecast Email!

Thanks for signing up!

Be on the lookout for a verification email in your inbox.

You'll start receiving the daily forecast at 8 AM.

×

10-Day Weather Forecast

Almanac

Astronomy

Feb. 24, 2017 Rise Set
Actual Time
Civil Twilight
Nautical Twilight
Astronomical Twilight
Moon
Length of Visible Light
Length of Day
Tomorrow will be .
, % of the Moon is Illuminated

Today's Extremes

State Highs State Lows

Community

WunderPhotos

Upload Photos

1,962,540 photos uploaded!

WunderBlog® & News

Nearby

Air Quality

  Air Quality AQ Index Pollutant
Not available.

Snow Depth

Station Depth Elevation

Earthquake Activity

City Distance Mag. Time & Date
Minimum magnitude displayed is 2.5.

Coastal Water Temperatures

Place Temperature

Stations

Nearby Weather Stations

Station Location Temp. Windchill Dew Point Humidity Wind Precip. Elev Updated Type
                   

Watches & Warnings

Winter Weather Advisory
Issued: 3:30 PM CST Feb. 24, 2017 – National Weather Service

... Winter Weather Advisory remains in effect until 6 am CST
Saturday...

* timing... now through tonight.

* Snow accumulations... 1 to 3 inches.

* Ice accumulations... a glazing to a tenth of an inch.

* Wind... northwest 10 to 20 mph with gusts up to 30 mph.

* Temperatures... upper teens overnight.

* Impacts... roads may become snow and ice covered becoming
hazardous.

Precautionary/preparedness actions...

A Winter Weather Advisory means that periods of snow, sleet, or
freezing rain will cause travel difficulties. Be prepared for
slippery roads and limited visibilities, and use caution while
driving.